Aviation Digital Data Service (ADDS)

Output produced by METARs form (1743 UTC 31 August 2015)
found at http://www.aviationweather.gov/adds/metars/
 
KSAV 311717Z VRB04KT 10SM SCT013 BKN016 BKN025 BKN250 28/23 A3009 RMK AO2 T02780228 $